createdAt,value
2022-12-03T00:02:13.958Z,10.82
2022-12-03T00:05:20.473Z,10.95
2022-12-03T00:08:26.333Z,10.99
2022-12-03T00:11:25.560Z,10.69
2022-12-03T00:14:31.844Z,9.89
2022-12-03T00:17:38.223Z,9.59
2022-12-03T00:20:44.752Z,8.82
2022-12-03T00:23:50.624Z,8.96
2022-12-03T00:26:55.706Z,9.30
2022-12-03T00:30:01.524Z,9.36
2022-12-03T00:33:06.793Z,9.31
2022-12-03T00:36:12.142Z,9.37
2022-12-03T00:39:18.012Z,9.86
2022-12-03T00:42:17.193Z,9.63
2022-12-03T00:45:23.497Z,9.79
2022-12-03T00:48:28.354Z,9.66
2022-12-03T00:51:35.142Z,9.76
2022-12-03T00:54:40.624Z,10.26
2022-12-03T00:57:46.322Z,9.95
2022-12-03T01:00:52.497Z,9.53
2022-12-03T01:03:57.851Z,10.10
2022-12-03T01:07:02.394Z,9.94
2022-12-03T01:10:08.179Z,9.70
2022-12-03T01:13:14.056Z,9.85
2022-12-03T01:16:20.609Z,9.67
2022-12-03T01:19:26.836Z,10.24
2022-12-03T01:22:32.196Z,9.99
2022-12-03T01:25:37.625Z,9.68
2022-12-03T01:28:43.396Z,9.83
2022-12-03T01:32:07.080Z,10.03
2022-12-03T01:35:13.029Z,9.72
2022-12-03T01:38:18.521Z,9.71
2022-12-03T01:41:25.107Z,10.04
2022-12-03T01:44:28.393Z,9.56
2022-12-03T01:47:34.919Z,9.77
2022-12-03T01:50:47.719Z,9.76
2022-12-03T01:53:53.951Z,9.72
2022-12-03T01:56:52.845Z,9.89
2022-12-03T01:59:54.140Z,9.72
2022-12-03T02:03:00.806Z,9.93
2022-12-03T02:06:06.684Z,9.67
2022-12-03T02:09:07.401Z,9.58
2022-12-03T02:12:12.448Z,9.58
2022-12-03T02:15:17.954Z,9.06
2022-12-03T02:18:24.410Z,9.68
2022-12-03T02:21:46.829Z,9.45
2022-12-03T02:25:16.563Z,9.22
2022-12-03T02:28:23.642Z,8.94
2022-12-03T02:31:30.109Z,8.77
2022-12-03T02:34:58.133Z,8.65
2022-12-03T02:38:07.334Z,8.19
2022-12-03T02:41:17.136Z,8.26
2022-12-03T02:44:21.928Z,8.06
2022-12-03T02:47:26.661Z,8.20
2022-12-03T02:50:37.159Z,8.65
2022-12-03T02:53:51.158Z,8.23
2022-12-03T02:56:56.698Z,8.39
2022-12-03T03:00:02.387Z,8.37
2022-12-03T03:03:08.110Z,8.58
2022-12-03T03:06:13.043Z,8.45
2022-12-03T03:09:18.200Z,8.28
2022-12-03T03:12:23.390Z,8.14
2022-12-03T03:15:28.238Z,7.96
2022-12-03T03:18:26.256Z,7.89
2022-12-03T03:21:18.829Z,7.92
2022-12-03T03:24:24.322Z,7.64
2022-12-03T03:27:30.039Z,7.73
2022-12-03T03:30:35.281Z,7.59
2022-12-03T03:33:41.279Z,7.36
2022-12-03T03:36:46.396Z,7.24
2022-12-03T03:39:53.051Z,7.42
2022-12-03T03:42:59.320Z,7.27
2022-12-03T03:46:05.274Z,6.84
2022-12-03T03:49:11.076Z,6.61
2022-12-03T03:52:18.639Z,6.79
2022-12-03T03:55:25.418Z,6.73
2022-12-03T03:58:31.062Z,6.80
2022-12-03T04:01:37.483Z,6.26
2022-12-03T04:04:42.654Z,6.14
2022-12-03T04:07:48.368Z,5.74
2022-12-03T04:11:12.392Z,5.70
2022-12-03T04:14:17.477Z,5.58
2022-12-03T04:17:22.867Z,5.53
2022-12-03T04:20:28.975Z,5.85
2022-12-03T04:23:34.023Z,5.87
2022-12-03T04:26:56.930Z,5.58
2022-12-03T04:30:02.322Z,5.83
2022-12-03T04:33:19.192Z,5.75
2022-12-03T04:36:24.792Z,5.92
2022-12-03T04:39:32.268Z,5.90
2022-12-03T04:42:37.597Z,5.68
2022-12-03T04:45:36.117Z,5.98
2022-12-03T04:48:40.857Z,6.09
2022-12-03T04:51:47.179Z,5.73
2022-12-03T04:54:53.528Z,5.77
2022-12-03T04:57:59.221Z,5.48
2022-12-03T05:01:05.035Z,5.17
2022-12-03T05:04:11.020Z,5.07
2022-12-03T05:07:15.883Z,5.26
2022-12-03T05:10:22.121Z,5.28
2022-12-03T05:13:28.485Z,5.51
2022-12-03T05:16:34.169Z,5.34
2022-12-03T05:19:58.474Z,5.22
2022-12-03T05:23:05.103Z,5.55
2022-12-03T05:26:10.749Z,5.72
2022-12-03T05:29:16.370Z,5.02
2022-12-03T05:32:22.325Z,5.61
2022-12-03T05:35:28.414Z,5.53
2022-12-03T05:38:34.670Z,5.66
2022-12-03T05:41:58.220Z,5.97
2022-12-03T05:45:03.885Z,5.87
2022-12-03T05:48:09.870Z,6.02
2022-12-03T05:51:16.048Z,5.63
2022-12-03T05:54:21.734Z,5.63
2022-12-03T05:57:27.461Z,5.65
2022-12-03T06:00:43.539Z,5.67
2022-12-03T06:03:49.002Z,6.33
2022-12-03T06:06:55.293Z,6.56
2022-12-03T06:10:00.664Z,6.18
2022-12-03T06:13:01.136Z,6.46
2022-12-03T06:16:07.136Z,6.12
2022-12-03T06:19:12.985Z,6.14
2022-12-03T06:22:18.578Z,6.34
2022-12-03T06:25:24.407Z,5.86
2022-12-03T06:28:29.740Z,5.75
2022-12-03T06:31:35.470Z,6.18
2022-12-03T06:34:40.605Z,5.80
2022-12-03T06:37:46.269Z,5.77
2022-12-03T06:40:52.784Z,6.15
2022-12-03T06:43:58.438Z,6.03
2022-12-03T06:47:03.849Z,6.15
2022-12-03T06:50:08.899Z,5.74
2022-12-03T06:53:14.605Z,6.06
2022-12-03T06:56:22.363Z,6.22
2022-12-03T06:59:26.290Z,5.93
2022-12-03T07:02:32.279Z,5.82
2022-12-03T07:05:38.109Z,6.14
2022-12-03T07:08:44.241Z,6.27
2022-12-03T07:11:49.396Z,6.40
2022-12-03T07:14:56.207Z,6.55
2022-12-03T07:18:02.859Z,6.51
2022-12-03T07:21:08.267Z,6.66
2022-12-03T07:24:13.585Z,6.45
2022-12-03T07:27:13.108Z,6.72
2022-12-03T07:30:06.210Z,6.71
2022-12-03T07:33:15.487Z,6.98
2022-12-03T07:36:25.043Z,6.62
2022-12-03T07:39:30.297Z,6.44
2022-12-03T07:42:36.838Z,6.60
2022-12-03T07:45:42.511Z,6.66
2022-12-03T07:48:47.495Z,6.78
2022-12-03T07:51:55.186Z,6.55
2022-12-03T07:55:01.257Z,6.70
2022-12-03T07:58:07.015Z,7.00
2022-12-03T08:01:12.239Z,7.17
2022-12-03T08:04:19.926Z,6.96
2022-12-03T08:07:25.776Z,6.90
2022-12-03T08:10:31.652Z,7.05
2022-12-03T08:13:37.986Z,7.68
2022-12-03T08:16:44.811Z,7.68
2022-12-03T08:19:51.514Z,7.96
2022-12-03T08:22:59.093Z,7.91
2022-12-03T08:26:07.401Z,8.19
2022-12-03T08:29:12.695Z,8.10
2022-12-03T08:32:20.451Z,8.42
2022-12-03T08:35:40.420Z,8.71
2022-12-03T08:38:51.341Z,8.51
2022-12-03T08:42:16.943Z,8.53
2022-12-03T08:49:12.520Z,9.34
2022-12-03T08:52:28.057Z,8.58
2022-12-03T08:55:49.457Z,9.05
2022-12-03T08:59:41.431Z,9.29
2022-12-03T09:02:51.430Z,9.22
2022-12-03T09:05:56.846Z,10.10
2022-12-03T09:09:06.707Z,10.35
2022-12-03T09:12:10.553Z,10.55
2022-12-03T09:15:15.796Z,8.86
2022-12-03T09:18:24.824Z,7.60
2022-12-03T09:21:31.841Z,7.88
2022-12-03T09:24:38.038Z,8.01
2022-12-03T09:27:43.540Z,7.65
2022-12-03T09:30:49.453Z,7.64
2022-12-03T09:33:55.025Z,7.57
2022-12-03T09:37:00.855Z,7.61
2022-12-03T09:40:05.637Z,8.17
2022-12-03T09:43:11.199Z,8.30
2022-12-03T09:46:16.838Z,8.17
2022-12-03T09:49:22.212Z,8.18
2022-12-03T09:52:33.380Z,8.68
2022-12-03T09:55:40.970Z,9.11
2022-12-03T09:58:46.731Z,9.82
2022-12-03T10:01:52.141Z,10.41
2022-12-03T10:04:58.992Z,10.34
2022-12-03T10:08:05.454Z,9.94
2022-12-03T10:11:11.305Z,10.34
2022-12-03T10:14:16.124Z,10.42
2022-12-03T10:17:22.225Z,10.61
2022-12-03T10:20:31.031Z,10.54
2022-12-03T10:23:40.606Z,10.20
2022-12-03T10:30:34.029Z,10.08
2022-12-03T10:33:43.902Z,10.20
2022-12-03T10:36:48.641Z,10.10
2022-12-03T10:40:16.123Z,10.36
2022-12-03T10:43:40.415Z,10.42
2022-12-03T10:46:46.517Z,10.72
2022-12-03T10:49:52.637Z,11.06
2022-12-03T10:52:57.646Z,11.05
2022-12-03T10:56:06.620Z,11.33
2022-12-03T10:59:12.734Z,11.24
2022-12-03T11:02:19.703Z,11.16
2022-12-03T11:05:33.090Z,11.05
2022-12-03T11:08:41.803Z,11.08
2022-12-03T11:11:53.549Z,11.22
2022-12-03T11:15:14.890Z,10.94
2022-12-03T11:18:22.825Z,10.43
2022-12-03T11:25:45.091Z,10.98
2022-12-03T11:28:51.840Z,11.05
2022-12-03T11:32:01.247Z,11.42
2022-12-03T11:35:07.111Z,11.25
2022-12-03T11:38:27.829Z,11.15
2022-12-03T11:41:49.387Z,11.38
2022-12-03T11:48:30.882Z,10.93
2022-12-03T11:51:38.009Z,10.48
2022-12-03T11:55:07.321Z,10.15
2022-12-03T11:58:41.260Z,10.29
2022-12-03T12:01:52.093Z,10.60
2022-12-03T12:04:57.882Z,10.65
2022-12-03T12:08:03.302Z,10.29
2022-12-03T12:11:09.378Z,10.41
2022-12-03T12:14:20.964Z,10.28
2022-12-03T12:17:45.092Z,10.08
2022-12-03T12:20:52.199Z,9.98
2022-12-03T12:23:57.642Z,10.27
2022-12-03T12:31:28.267Z,10.71
2022-12-03T12:34:35.924Z,11.22
2022-12-03T12:38:00.222Z,11.12
2022-12-03T12:41:11.777Z,10.72
2022-12-03T12:44:17.230Z,10.55
2022-12-03T12:47:24.954Z,10.70
2022-12-03T12:50:32.930Z,10.51
2022-12-03T12:53:50.937Z,10.31
2022-12-03T12:57:02.096Z,9.87
2022-12-03T13:00:07.783Z,10.01
2022-12-03T13:03:17.704Z,10.27
2022-12-03T13:06:28.465Z,10.43
2022-12-03T13:09:40.354Z,10.28
2022-12-03T13:12:45.793Z,10.46
2022-12-03T13:16:11.493Z,11.13
2022-12-03T13:19:27.885Z,11.20
2022-12-03T13:22:48.731Z,13.32
2022-12-03T13:26:12.954Z,10.55
2022-12-03T13:29:21.691Z,10.99
2022-12-03T13:32:34.289Z,10.98
2022-12-03T13:36:05.465Z,11.69
2022-12-03T13:39:11.769Z,12.05
2022-12-03T13:42:52.830Z,12.98
2022-12-03T13:46:03.058Z,11.55
2022-12-03T13:49:08.487Z,11.29
2022-12-03T13:52:14.746Z,11.85
2022-12-03T13:55:21.356Z,11.58
2022-12-03T13:58:26.335Z,10.80
2022-12-03T14:01:32.521Z,10.83
2022-12-03T14:05:00.725Z,11.08
2022-12-03T14:08:08.128Z,11.12
2022-12-03T14:11:13.798Z,10.94
2022-12-03T14:14:19.155Z,11.05
2022-12-03T14:17:37.878Z,11.43
2022-12-03T14:21:05.163Z,11.29
2022-12-03T14:24:10.331Z,11.63
2022-12-03T14:27:18.166Z,11.20
2022-12-03T14:30:24.390Z,11.51
2022-12-03T14:33:35.061Z,11.81
2022-12-03T14:36:41.257Z,11.61
2022-12-03T14:39:56.729Z,10.16
2022-12-03T14:43:08.009Z,9.75
2022-12-03T14:46:31.912Z,9.40
2022-12-03T14:49:36.636Z,9.31
2022-12-03T14:52:51.421Z,9.02
2022-12-03T14:56:06.899Z,8.92
2022-12-03T14:59:13.970Z,8.74
2022-12-03T15:02:39.631Z,8.55
2022-12-03T15:06:01.475Z,8.35
2022-12-03T15:09:07.359Z,8.51
2022-12-03T15:12:19.040Z,8.73
2022-12-03T15:15:26.907Z,8.30
2022-12-03T15:18:37.978Z,8.50
2022-12-03T15:22:01.110Z,8.69
2022-12-03T15:25:08.989Z,8.92
2022-12-03T15:28:15.892Z,8.61
2022-12-03T15:31:21.862Z,8.64
2022-12-03T15:34:51.956Z,8.65
2022-12-03T15:41:31.193Z,8.79
2022-12-03T15:44:38.063Z,8.87
2022-12-03T15:47:43.123Z,8.69
2022-12-03T15:50:48.473Z,9.04
2022-12-03T15:53:55.704Z,9.26
2022-12-03T16:00:31.898Z,7.96
2022-12-03T16:04:05.294Z,7.33
2022-12-03T16:07:12.186Z,7.56
2022-12-03T16:10:18.989Z,7.28
2022-12-03T16:13:46.971Z,7.27
2022-12-03T16:20:47.775Z,7.42
2022-12-03T16:24:04.545Z,7.66
2022-12-03T16:27:19.563Z,7.85
2022-12-03T16:33:59.508Z,7.45
2022-12-03T16:37:11.436Z,7.58
2022-12-03T16:40:33.619Z,7.55
2022-12-03T16:43:48.399Z,7.17
2022-12-03T16:51:07.439Z,6.77
2022-12-03T16:54:13.626Z,6.78
2022-12-03T16:57:20.724Z,6.95
2022-12-03T17:00:28.156Z,6.27
2022-12-03T17:03:34.243Z,6.13
2022-12-03T17:06:40.142Z,6.03
2022-12-03T17:09:47.834Z,6.08
2022-12-03T17:13:09.257Z,6.09
2022-12-03T17:16:01.984Z,6.19
2022-12-03T17:19:08.135Z,6.05
2022-12-03T17:22:14.299Z,6.32
2022-12-03T17:25:20.263Z,6.01
2022-12-03T17:28:24.786Z,6.19
2022-12-03T17:31:24.346Z,6.31
2022-12-03T17:34:29.706Z,6.23
2022-12-03T17:37:35.486Z,5.99
2022-12-03T17:40:41.657Z,6.05
2022-12-03T17:43:47.648Z,6.56
2022-12-03T17:46:53.128Z,6.33
2022-12-03T17:49:52.892Z,6.50
2022-12-03T17:52:45.462Z,6.80
2022-12-03T17:55:53.652Z,7.00
2022-12-03T17:58:52.331Z,7.00
2022-12-03T18:01:59.928Z,6.70
2022-12-03T18:05:05.752Z,6.77
2022-12-03T18:08:12.175Z,6.63
2022-12-03T18:11:16.919Z,6.73
2022-12-03T18:14:22.954Z,6.45
2022-12-03T18:17:28.056Z,6.61
2022-12-03T18:20:33.114Z,6.71
2022-12-03T18:23:38.224Z,6.37
2022-12-03T18:26:44.120Z,6.84
2022-12-03T18:29:49.812Z,6.86
2022-12-03T18:32:56.122Z,6.71
2022-12-03T18:36:01.078Z,6.88
2022-12-03T18:39:08.178Z,6.57
2022-12-03T18:42:13.595Z,6.55
2022-12-03T18:45:21.631Z,6.98
2022-12-03T18:48:30.099Z,6.74
2022-12-03T18:51:37.566Z,5.98
2022-12-03T18:54:43.357Z,6.37
2022-12-03T18:57:48.304Z,6.29
2022-12-03T19:00:53.311Z,5.84
2022-12-03T19:03:58.583Z,6.09
2022-12-03T19:07:04.316Z,6.22
2022-12-03T19:10:09.950Z,6.30
2022-12-03T19:13:16.677Z,6.52
2022-12-03T19:16:24.359Z,6.25
2022-12-03T19:19:32.930Z,5.81
2022-12-03T19:22:38.211Z,5.77
2022-12-03T19:25:43.904Z,6.34
2022-12-03T19:28:50.507Z,6.07
2022-12-03T19:31:56.826Z,5.63
2022-12-03T19:35:03.715Z,6.21
2022-12-03T19:38:10.104Z,5.90
2022-12-03T19:41:21.142Z,6.17
2022-12-03T19:44:28.934Z,6.47
2022-12-03T19:47:33.709Z,6.46
2022-12-03T19:50:39.304Z,6.14
2022-12-03T19:53:46.471Z,5.94
2022-12-03T19:56:53.513Z,6.03
2022-12-03T19:59:52.888Z,5.74
2022-12-03T20:02:59.600Z,6.50
2022-12-03T20:06:05.464Z,6.36
2022-12-03T20:09:17.687Z,6.00
2022-12-03T20:12:23.176Z,5.92
2022-12-03T20:15:28.919Z,6.25
2022-12-03T20:18:34.558Z,6.30
2022-12-03T20:21:40.311Z,6.44
2022-12-03T20:24:45.766Z,6.84
2022-12-03T20:27:50.869Z,6.52
2022-12-03T20:30:55.636Z,6.83
2022-12-03T20:34:04.552Z,6.75
2022-12-03T20:37:10.124Z,6.40
2022-12-03T20:40:16.140Z,6.44
2022-12-03T20:43:22.172Z,6.31
2022-12-03T20:46:38.214Z,6.28
2022-12-03T20:49:45.917Z,6.01
2022-12-03T20:53:16.319Z,6.07
2022-12-03T20:55:59.023Z,6.41
2022-12-03T20:59:04.762Z,6.35
2022-12-03T21:02:11.791Z,6.40
2022-12-03T21:05:17.031Z,6.54
2022-12-03T21:08:27.913Z,6.78
2022-12-03T21:11:28.567Z,6.65
2022-12-03T21:14:34.480Z,6.57
2022-12-03T21:17:39.957Z,7.05
2022-12-03T21:20:45.996Z,7.13
2022-12-03T21:23:50.848Z,6.61
2022-12-03T21:26:57.237Z,6.63
2022-12-03T21:30:02.830Z,6.63
2022-12-03T21:33:08.559Z,6.54
2022-12-03T21:36:14.728Z,6.91
2022-12-03T21:39:20.466Z,6.63
2022-12-03T21:42:35.918Z,6.58
2022-12-03T21:45:33.293Z,6.55
2022-12-03T21:48:39.040Z,6.56
2022-12-03T21:51:45.449Z,6.81
2022-12-03T21:54:51.644Z,6.64
2022-12-03T21:57:56.881Z,6.40
2022-12-03T22:01:03.320Z,6.42
2022-12-03T22:04:03.189Z,6.54
2022-12-03T22:07:09.351Z,6.38
2022-12-03T22:10:15.623Z,6.00
2022-12-03T22:13:22.217Z,6.59
2022-12-03T22:16:32.321Z,6.32
2022-12-03T22:19:37.500Z,6.42
2022-12-03T22:22:43.186Z,6.69
2022-12-03T22:25:48.729Z,6.38
